Time;durP1;ratioP1;P1;durP2;ratioP2;P2;SDS_P1;SDS_P2;PMS_P1;PMS_P2;Temp;Humidity;BMP_temperature;BMP_pressure;BME280_temperature;BME280_humidity;BME280_pressure;Samples;Min_cycle;Max_cycle;Signal;HPM_P1;HPM_P2
2022/03/08 00:00:33;;;;;;;5.15;4.75;;;20.70;47.60;;;;;;4939912;29;20178;-70
2022/03/08 00:03:00;;;;;;;4.38;4.05;;;20.70;47.60;;;;;;4939678;29;20273;-70
2022/03/08 00:05:27;;;;;;;5.13;4.72;;;20.70;47.60;;;;;;4939546;29;20277;-70
2022/03/08 00:07:54;;;;;;;4.95;4.45;;;20.70;47.40;;;;;;4939377;29;20234;-70
2022/03/08 00:10:21;;;;;;;4.78;4.38;;;20.70;47.40;;;;;;4939498;29;20186;-70
2022/03/08 00:12:48;;;;;;;3.95;3.65;;;20.70;47.50;;;;;;4923489;29;20229;-70
2022/03/08 00:15:23;;;;;;;4.07;3.72;;;20.70;47.60;;;;;;4956672;29;20218;-71
2022/03/08 00:17:50;;;;;;;3.50;3.20;;;20.70;47.40;;;;;;4939545;29;20635;-70
2022/03/08 00:20:17;;;;;;;3.70;3.40;;;20.70;47.60;;;;;;4939708;29;20186;-70
2022/03/08 00:22:44;;;;;;;3.97;3.60;;;20.70;47.60;;;;;;4939209;29;20289;-70
2022/03/08 00:25:12;;;;;;;3.60;3.35;;;20.70;47.60;;;;;;4939440;29;20201;-71
2022/03/08 00:27:45;;;;;;;3.42;3.03;;;20.70;47.60;;;;;;4939140;29;20174;-69
2022/03/08 00:30:17;;;;;;;3.50;3.28;;;20.70;47.70;;;;;;4923695;29;20269;-70
2022/03/08 00:32:45;;;;;;;10.20;4.25;;;20.70;47.50;;;;;;4939337;29;20301;-71
2022/03/08 00:35:10;;;;;;;4.55;4.22;;;20.70;47.70;;;;;;4939427;29;20179;-70
2022/03/08 00:37:37;;;;;;;5.13;4.68;;;20.70;47.60;;;;;;4938889;29;20201;-71
2022/03/08 00:40:07;;;;;;;4.85;4.35;;;20.60;47.50;;;;;;4942078;28;20183;-70
2022/03/08 00:42:33;;;;;;;4.38;3.97;;;20.70;47.70;;;;;;4977367;28;20216;-70
2022/03/08 00:44:59;;;;;;;4.93;4.53;;;20.70;47.60;;;;;;4961286;28;20280;-70
2022/03/08 00:47:25;;;;;;;4.70;4.35;;;20.70;47.60;;;;;;4961239;28;20275;-70
2022/03/08 00:49:51;;;;;;;4.35;4.00;;;20.70;47.40;;;;;;4961470;28;20203;-70
2022/03/08 00:52:18;;;;;;;4.40;4.10;;;20.70;47.30;;;;;;4961043;28;20243;-70
2022/03/08 00:54:44;;;;;;;4.60;4.20;;;20.60;47.00;;;;;;4961441;28;20212;-70
2022/03/08 00:57:09;;;;;;;4.22;3.88;;;20.60;47.20;;;;;;4961337;28;20216;-70
2022/03/08 00:59:35;;;;;;;4.13;3.72;;;20.60;47.40;;;;;;4960942;28;20307;-70
2022/03/08 01:02:02;;;;;;;4.18;3.83;;;20.60;47.20;;;;;;4960114;28;20213;-70
2022/03/08 01:04:28;;;;;;;3.30;3.00;;;20.70;47.40;;;;;;4977018;28;20189;-70
2022/03/08 01:06:55;;;;;;;3.60;3.30;;;20.60;47.30;;;;;;4977320;28;20247;-71
2022/03/08 01:09:22;;;;;;;3.25;3.05;;;20.70;47.60;;;;;;4977426;28;20185;-70
2022/03/08 01:11:48;;;;;;;3.67;3.33;;;20.60;47.40;;;;;;4976771;28;20189;-70
2022/03/08 01:14:14;;;;;;;3.42;3.13;;;20.70;47.50;;;;;;4960885;28;20216;-70
2022/03/08 01:16:39;;;;;;;3.20;3.00;;;20.70;47.60;;;;;;4960792;28;20567;-70
2022/03/08 01:19:06;;;;;;;3.80;3.50;;;20.60;47.40;;;;;;4960876;28;20195;-70
2022/03/08 01:21:36;;;;;;;3.67;3.40;;;20.70;47.60;;;;;;4976894;28;20204;-70
2022/03/08 01:24:03;;;;;;;3.97;3.25;;;20.70;47.50;;;;;;4976732;28;20235;-70
2022/03/08 01:26:29;;;;;;;4.20;3.90;;;20.60;47.40;;;;;;4976664;28;20185;-70
2022/03/08 01:28:56;;;;;;;4.45;4.05;;;20.60;47.40;;;;;;4976696;28;20185;-70
2022/03/08 01:31:22;;;;;;;4.80;4.43;;;20.60;47.40;;;;;;4993048;28;20200;-70
2022/03/08 01:33:50;;;;;;;4.45;4.00;;;20.60;47.40;;;;;;4976219;28;20271;-70
2022/03/08 01:36:17;;;;;;;4.13;3.83;;;20.60;47.30;;;;;;4960264;28;20189;-70
2022/03/08 01:38:43;;;;;;;4.60;4.20;;;20.60;47.40;;;;;;4992619;28;20184;-70
2022/03/08 01:41:08;;;;;;;4.40;4.10;;;20.60;47.00;;;;;;4976435;28;20248;-70
2022/03/08 01:43:34;;;;;;;4.05;3.75;;;20.60;47.10;;;;;;4949680;28;20206;-70
2022/03/08 01:46:00;;;;;;;4.32;4.03;;;20.70;47.30;;;;;;4940863;28;20193;-70
2022/03/08 01:48:27;;;;;;;6.35;4.30;;;20.60;47.00;;;;;;4941087;28;20284;-70
2022/03/08 01:50:53;;;;;;;4.25;3.50;;;20.60;47.00;;;;;;4940986;28;20197;-70
2022/03/08 01:53:20;;;;;;;3.50;3.30;;;20.60;47.00;;;;;;4941036;28;20217;-70
2022/03/08 01:55:45;;;;;;;3.80;3.50;;;20.60;47.10;;;;;;4956908;28;20185;-70
2022/03/08 01:58:11;;;;;;;3.30;3.00;;;20.70;47.30;;;;;;4956549;28;20276;-70
2022/03/08 02:00:37;;;;;;;3.38;3.03;;;20.60;47.00;;;;;;4924885;28;20194;-70
2022/03/08 02:03:03;;;;;;;3.25;3.05;;;20.60;47.10;;;;;;4956831;28;20209;-70
2022/03/08 02:05:29;;;;;;;3.67;3.33;;;20.60;47.20;;;;;;4940929;28;20181;-70
2022/03/08 02:07:55;;;;;;;3.60;3.30;;;20.60;47.10;;;;;;4956351;28;20189;-70
2022/03/08 02:10:21;;;;;;;3.30;3.03;;;20.60;47.80;;;;;;4940605;28;20182;-70
2022/03/08 02:12:47;;;;;;;3.03;2.83;;;20.60;47.20;;;;;;4956184;28;20214;-70
2022/03/08 02:15:21;;;;;;;4.03;3.20;;;20.60;47.10;;;;;;4956387;28;20182;-70
2022/03/08 02:17:47;;;;;;;3.63;3.33;;;20.70;47.20;;;;;;4956490;28;20177;-70
2022/03/08 02:20:14;;;;;;;3.75;3.45;;;20.60;47.20;;;;;;4940683;28;20555;-70
2022/03/08 02:22:43;;;;;;;3.90;3.60;;;20.60;47.80;;;;;;4940662;28;20213;-70
2022/03/08 02:25:10;;;;;;;4.57;4.10;;;20.70;47.10;;;;;;4973802;28;20190;-70
2022/03/08 02:27:54;;;;;;;3.97;3.67;;;20.60;47.00;;;;;;4956430;28;20239;-70
2022/03/08 02:30:22;;;;;;;3.80;3.50;;;20.60;47.00;;;;;;4956432;28;20182;-70
2022/03/08 02:32:49;;;;;;;4.40;4.00;;;20.60;47.00;;;;;;4940138;28;20694;-70
2022/03/08 02:35:22;;;;;;;3.67;3.28;;;20.60;46.80;;;;;;4972700;28;20186;-70
2022/03/08 02:37:54;;;;;;;3.28;3.08;;;20.60;47.00;;;;;;4972222;28;20213;-70
2022/03/08 02:40:28;;;;;;;3.00;2.80;;;20.60;47.00;;;;;;4973610;28;20186;-70
2022/03/08 02:42:54;;;;;;;3.35;3.08;;;20.60;47.00;;;;;;4956167;28;20272;-70
2022/03/08 02:45:21;;;;;;;3.13;2.90;;;20.60;47.00;;;;;;4956515;28;20201;-70
2022/03/08 02:47:47;;;;;;;3.20;3.00;;;20.60;47.00;;;;;;4940198;28;20197;-70
2022/03/08 02:50:15;;;;;;;3.08;2.72;;;20.60;47.00;;;;;;4940226;28;20182;-70
2022/03/08 02:52:44;;;;;;;3.03;2.83;;;20.60;47.10;;;;;;4956386;28;20213;-70
2022/03/08 02:55:12;;;;;;;3.60;3.30;;;20.60;47.00;;;;;;4956122;28;20193;-70
2022/03/08 02:57:39;;;;;;;3.00;2.80;;;20.60;47.00;;;;;;4972166;28;20177;-70
2022/03/08 03:00:09;;;;;;;3.58;3.28;;;20.60;47.00;;;;;;4956356;28;20190;-70
2022/03/08 03:02:35;;;;;;;3.85;3.55;;;20.60;47.00;;;;;;4971906;28;20213;-70
2022/03/08 03:05:01;;;;;;;4.68;4.22;;;20.60;46.80;;;;;;4973242;28;20209;-70
2022/03/08 03:07:27;;;;;;;4.13;3.72;;;20.60;47.00;;;;;;4940016;28;20186;-70
2022/03/08 03:09:53;;;;;;;3.95;3.55;;;20.60;46.70;;;;;;4939768;28;20256;-70
2022/03/08 03:12:19;;;;;;;3.33;2.95;;;20.60;46.80;;;;;;4956039;28;20213;-70
2022/03/08 03:14:45;;;;;;;3.50;3.30;;;20.60;46.80;;;;;;4956062;28;20188;-70
2022/03/08 03:17:11;;;;;;;3.30;3.10;;;20.60;46.80;;;;;;4956007;28;20178;-70
2022/03/08 03:19:37;;;;;;;4.57;3.53;;;20.60;47.00;;;;;;4940283;28;20194;-70
2022/03/08 03:22:04;;;;;;;3.58;3.28;;;20.60;47.00;;;;;;4956196;28;20226;-70
2022/03/08 03:24:30;;;;;;;3.22;2.92;;;20.60;46.90;;;;;;4940148;28;20193;-70
2022/03/08 03:26:55;;;;;;;3.13;2.83;;;20.60;47.00;;;;;;4958615;28;20185;-70
2022/03/08 03:29:21;;;;;;;2.78;2.58;;;20.60;47.00;;;;;;4943708;28;20201;-70
2022/03/08 03:31:47;;;;;;;3.10;2.90;;;20.60;47.00;;;;;;4943448;28;20189;-70
2022/03/08 03:34:13;;;;;;;3.08;2.88;;;20.60;47.00;;;;;;4959676;28;20220;-70
2022/03/08 03:36:39;;;;;;;3.13;2.85;;;20.60;47.00;;;;;;4959650;28;20188;-70
2022/03/08 03:39:06;;;;;;;3.72;2.90;;;20.60;47.00;;;;;;4943245;28;20694;-70
2022/03/08 03:41:32;;;;;;;5.90;2.70;;;20.60;47.00;;;;;;4976340;28;20598;-70
2022/03/08 03:43:58;;;;;;;3.17;2.97;;;20.60;47.00;;;;;;4959020;28;20206;-70
2022/03/08 03:46:24;;;;;;;3.22;2.70;;;20.60;47.00;;;;;;4975186;28;20689;-70
2022/03/08 03:48:49;;;;;;;2.97;2.78;;;20.60;47.00;;;;;;4941633;28;20248;-70
2022/03/08 03:51:18;;;;;;;4.70;3.05;;;20.60;47.00;;;;;;5012107;23;20267;-69
2022/03/08 03:53:45;;;;;;;3.13;2.92;;;20.60;47.00;;;;;;4998140;28;20243;-69
2022/03/08 03:56:11;;;;;;;3.45;3.20;;;20.60;47.00;;;;;;4998062;28;20199;-69
2022/03/08 03:58:38;;;;;;;3.70;3.40;;;20.60;47.00;;;;;;4997683;28;20652;-69
2022/03/08 04:01:04;;;;;;;3.17;2.97;;;20.60;47.00;;;;;;4997917;28;20196;-69
2022/03/08 04:03:31;;;;;;;3.58;3.28;;;20.60;47.00;;;;;;4997648;28;20188;-69
2022/03/08 04:05:57;;;;;;;3.28;2.97;;;20.60;47.00;;;;;;4997764;28;20224;-69
2022/03/08 04:08:23;;;;;;;3.35;3.15;;;20.60;47.00;;;;;;4997524;28;20188;-69
2022/03/08 04:10:50;;;;;;;3.13;2.92;;;20.60;47.00;;;;;;4981260;28;20601;-69
2022/03/08 04:13:17;;;;;;;3.30;3.10;;;20.60;47.00;;;;;;4997360;28;20207;-69
2022/03/08 04:15:44;;;;;;;2.95;2.75;;;20.60;46.90;;;;;;4981232;28;20210;-69
2022/03/08 04:18:13;;;;;;;3.72;2.70;;;20.60;46.90;;;;;;4980982;28;20180;-69
2022/03/08 04:20:39;;;;;;;2.88;2.67;;;20.60;46.90;;;;;;4997045;28;20204;-69
2022/03/08 04:23:04;;;;;;;2.67;2.47;;;20.60;47.00;;;;;;4997462;28;20264;-69
2022/03/08 04:25:31;;;;;;;2.60;2.40;;;20.60;47.00;;;;;;4997290;28;20282;-69
2022/03/08 04:27:57;;;;;;;3.03;2.83;;;20.60;47.00;;;;;;4980907;28;20199;-69
2022/03/08 04:30:23;;;;;;;2.90;2.25;;;20.60;47.00;;;;;;4981255;28;20284;-69
2022/03/08 04:32:51;;;;;;;2.80;2.60;;;20.60;47.00;;;;;;5014622;28;20284;-69
2022/03/08 04:35:19;;;;;;;2.60;2.40;;;20.60;47.00;;;;;;4997242;28;20270;-69
2022/03/08 04:37:45;;;;;;;2.50;2.30;;;20.60;47.00;;;;;;5014513;28;20679;-69
2022/03/08 04:40:12;;;;;;;3.13;2.55;;;20.60;47.00;;;;;;4996764;28;20703;-69
2022/03/08 04:42:40;;;;;;;2.75;2.55;;;20.60;47.00;;;;;;4980952;28;20568;-69
2022/03/08 04:45:10;;;;;;;3.17;2.97;;;20.60;47.00;;;;;;4980712;28;20180;-69
2022/03/08 04:47:37;;;;;;;3.92;3.63;;;20.60;47.00;;;;;;4980729;28;20195;-69
2022/03/08 04:50:11;;;;;;;3.08;2.88;;;20.60;47.00;;;;;;4980160;28;20294;-70
2022/03/08 04:52:38;;;;;;;3.40;3.10;;;20.60;47.00;;;;;;4996798;28;20235;-69
2022/03/08 04:55:05;;;;;;;2.85;2.65;;;20.60;47.00;;;;;;4980425;28;20207;-69
2022/03/08 04:57:31;;;;;;;3.58;3.28;;;20.60;47.00;;;;;;5014127;28;20176;-69
2022/03/08 04:59:57;;;;;;;2.95;2.75;;;20.60;46.80;;;;;;4980230;28;20237;-69
2022/03/08 05:02:25;;;;;;;3.50;3.20;;;20.60;47.00;;;;;;4996884;28;20183;-68
2022/03/08 05:04:50;;;;;;;3.17;2.97;;;20.60;47.00;;;;;;4996499;28;20176;-69
2022/03/08 05:07:16;;;;;;;2.65;2.45;;;20.60;47.00;;;;;;4996662;28;20226;-69
2022/03/08 05:09:42;;;;;;;2.88;2.67;;;20.60;47.00;;;;;;4996256;28;20195;-69
2022/03/08 05:12:09;;;;;;;2.80;2.60;;;20.60;47.00;;;;;;4980030;28;20204;-69
2022/03/08 05:14:37;;;;;;;2.28;2.17;;;20.60;47.00;;;;;;4980394;28;20311;-69
2022/03/08 05:17:04;;;;;;;3.50;2.50;;;20.60;47.00;;;;;;4996260;28;20180;-69
2022/03/08 05:19:30;;;;;;;2.70;2.50;;;20.60;47.00;;;;;;4979888;28;20188;-69
2022/03/08 05:21:56;;;;;;;3.47;2.67;;;20.60;47.00;;;;;;4979960;28;20211;-69
2022/03/08 05:24:22;;;;;;;2.63;2.42;;;20.60;47.00;;;;;;4979848;28;20188;-69
2022/03/08 05:26:47;;;;;;;2.65;2.45;;;20.70;47.00;;;;;;4996254;28;20188;-69
2022/03/08 05:29:13;;;;;;;2.92;2.40;;;20.60;47.00;;;;;;4979783;28;20192;-69
2022/03/08 05:31:39;;;;;;;3.47;2.60;;;20.60;47.00;;;;;;4996020;28;20212;-68
2022/03/08 05:34:05;;;;;;;2.47;2.28;;;20.60;47.10;;;;;;4995953;28;20211;-69
2022/03/08 05:36:31;;;;;;;3.53;2.55;;;20.60;47.10;;;;;;4995827;28;20188;-68
2022/03/08 05:38:56;;;;;;;3.10;2.90;;;20.70;47.40;;;;;;4995986;28;20184;-68
2022/03/08 05:41:22;;;;;;;2.83;2.63;;;20.60;47.30;;;;;;4995876;28;20212;-69
2022/03/08 05:43:48;;;;;;;3.13;2.90;;;20.60;47.20;;;;;;4979570;28;20251;-69
2022/03/08 05:46:14;;;;;;;3.15;2.92;;;20.60;47.30;;;;;;4995665;28;20219;-69
2022/03/08 05:48:39;;;;;;;3.47;3.15;;;20.60;47.70;;;;;;4978908;28;20188;-69
2022/03/08 05:51:06;;;;;;;3.70;3.00;;;20.60;47.40;;;;;;4995599;28;20727;-69
2022/03/08 05:53:31;;;;;;;2.95;2.75;;;20.60;47.00;;;;;;4995714;28;20212;-70
2022/03/08 05:55:57;;;;;;;3.08;2.80;;;20.60;47.40;;;;;;4995712;28;20655;-69
2022/03/08 05:58:23;;;;;;;3.53;3.00;;;20.60;47.00;;;;;;4995465;28;20290;-68
2022/03/08 06:00:49;;;;;;;3.58;2.78;;;20.60;47.10;;;;;;4995350;28;20212;-69
2022/03/08 06:03:15;;;;;;;4.32;2.47;;;20.60;47.30;;;;;;4995254;28;20200;-67
2022/03/08 06:05:41;;;;;;;2.22;2.05;;;20.60;47.50;;;;;;4995252;28;20199;-69
2022/03/08 06:08:07;;;;;;;2.60;2.40;;;20.60;47.70;;;;;;4995310;28;20187;-68
2022/03/08 06:10:33;;;;;;;2.78;2.42;;;20.60;47.70;;;;;;4979122;28;20207;-69
2022/03/08 06:12:59;;;;;;;3.63;2.15;;;20.60;47.90;;;;;;4978923;28;20302;-68
2022/03/08 06:15:25;;;;;;;3.42;2.20;;;20.60;48.00;;;;;;4979062;28;20180;-68
2022/03/08 06:17:51;;;;;;;3.08;2.38;;;20.60;47.90;;;;;;4995026;28;20280;-68
2022/03/08 06:20:17;;;;;;;3.88;2.55;;;20.60;48.00;;;;;;4992970;28;20200;-69
2022/03/08 06:22:43;;;;;;;4.57;2.50;;;20.60;48.00;;;;;;4971354;28;20193;-69
2022/03/08 06:25:10;;;;;;;3.30;2.33;;;20.60;48.00;;;;;;4960391;28;20189;-68
2022/03/08 06:27:35;;;;;;;3.63;2.53;;;20.60;48.20;;;;;;4992963;28;20196;-68
2022/03/08 06:30:03;;;;;;;5.68;2.78;;;20.50;48.00;;;;;;4992858;28;20169;-69
2022/03/08 06:32:29;;;;;;;3.70;2.55;;;20.60;48.10;;;;;;4959544;28;20188;-68
2022/03/08 06:34:54;;;;;;;3.60;2.40;;;20.60;48.10;;;;;;4975567;28;20185;-69
2022/03/08 06:37:20;;;;;;;4.15;3.03;;;20.60;48.00;;;;;;4959745;28;20188;-69
2022/03/08 06:39:47;;;;;;;2.97;2.78;;;20.60;48.00;;;;;;4959131;28;20653;-69
2022/03/08 06:42:13;;;;;;;3.10;2.90;;;20.60;47.90;;;;;;4959819;28;20234;-68
2022/03/08 06:44:39;;;;;;;4.68;3.00;;;20.50;47.70;;;;;;4975707;28;20176;-68
2022/03/08 06:47:11;;;;;;;3.17;2.90;;;20.50;47.50;;;;;;4959417;28;20554;-68
2022/03/08 06:49:39;;;;;;;3.42;3.10;;;20.50;47.80;;;;;;4983424;28;20223;-68
2022/03/08 06:52:07;;;;;;;3.20;2.90;;;20.50;47.60;;;;;;4945636;28;20224;-69
2022/03/08 06:54:34;;;;;;;3.03;2.72;;;20.50;47.60;;;;;;4956135;28;20356;-68
2022/03/08 06:57:00;;;;;;;3.42;2.63;;;20.50;47.50;;;;;;4956016;28;20240;-68
2022/03/08 06:59:26;;;;;;;2.53;2.28;;;20.50;47.40;;;;;;4956185;28;20280;-68
2022/03/08 07:01:52;;;;;;;3.08;2.67;;;20.50;47.50;;;;;;4958863;28;20340;-68
2022/03/08 07:04:18;;;;;;;2.80;2.60;;;20.50;47.50;;;;;;4959872;28;20193;-68
2022/03/08 07:06:45;;;;;;;2.38;2.20;;;20.60;47.60;;;;;;4943999;28;20190;-68
2022/03/08 07:09:11;;;;;;;2.35;2.20;;;20.60;47.40;;;;;;4951607;28;20196;-69
2022/03/08 07:11:36;;;;;;;3.50;2.40;;;20.70;47.50;;;;;;4990784;28;20220;-69
2022/03/08 07:14:03;;;;;;;2.70;2.42;;;20.70;47.60;;;;;;4962707;28;20251;-68
2022/03/08 07:16:29;;;;;;;3.30;2.30;;;20.70;47.50;;;;;;4996344;28;20188;-68
2022/03/08 07:18:55;;;;;;;2.45;2.25;;;20.70;47.60;;;;;;4979021;28;20181;-69
2022/03/08 07:21:21;;;;;;;2.28;2.08;;;20.70;47.60;;;;;;4976996;28;20255;-69
2022/03/08 07:23:47;;;;;;;3.20;2.90;;;20.70;47.60;;;;;;4995405;28;20201;-69
2022/03/08 07:26:13;;;;;;;2.95;2.72;;;20.80;47.60;;;;;;4971751;28;20564;-68
2022/03/08 07:28:39;;;;;;;3.05;2.70;;;20.80;47.40;;;;;;4948564;28;20188;-69
2022/03/08 07:31:05;;;;;;;2.88;2.67;;;20.80;47.20;;;;;;4968875;28;20256;-69
2022/03/08 07:33:31;;;;;;;3.08;2.88;;;20.90;47.20;;;;;;4959106;28;20213;-69
2022/03/08 07:35:57;;;;;;;2.72;2.47;;;20.80;47.10;;;;;;4969095;28;20243;-69
2022/03/08 07:38:24;;;;;;;3.97;2.80;;;20.90;47.10;;;;;;4962308;28;20237;-69
2022/03/08 07:40:50;;;;;;;3.33;3.00;;;20.90;46.80;;;;;;4943327;28;20212;-69
2022/03/08 07:43:15;;;;;;;3.08;2.88;;;20.90;46.70;;;;;;4955221;28;20189;-69
2022/03/08 07:45:42;;;;;;;3.58;3.28;;;20.90;46.80;;;;;;4975279;28;20322;-69
2022/03/08 07:48:07;;;;;;;2.60;2.45;;;20.90;46.50;;;;;;4959033;28;20189;-69
2022/03/08 07:50:35;;;;;;;2.90;2.70;;;20.90;46.80;;;;;;4975915;28;20209;-69
2022/03/08 07:53:03;;;;;;;2.80;2.60;;;20.90;46.60;;;;;;4989690;28;20216;-69
2022/03/08 07:55:29;;;;;;;2.67;2.47;;;20.90;46.70;;;;;;4978353;28;20276;-69
2022/03/08 07:58:01;;;;;;;2.60;2.40;;;20.90;46.70;;;;;;4994510;28;20184;-69
2022/03/08 08:00:27;;;;;;;2.95;1.98;;;20.90;46.70;;;;;;4978309;28;20211;-69
2022/03/08 08:02:53;;;;;;;3.20;2.28;;;21.00;46.90;;;;;;4965583;28;20193;-69
2022/03/08 08:05:20;;;;;;;2.67;2.42;;;21.00;46.90;;;;;;4974873;28;20197;-69
2022/03/08 08:07:47;;;;;;;3.33;2.50;;;21.10;47.00;;;;;;4958803;28;20192;-69
2022/03/08 08:10:13;;;;;;;4.55;2.47;;;21.10;47.00;;;;;;4974728;28;20245;-69
2022/03/08 08:12:39;;;;;;;3.47;2.30;;;21.10;47.10;;;;;;4992191;28;20203;-69
2022/03/08 08:15:06;;;;;;;2.40;2.20;;;21.10;46.90;;;;;;4978293;28;20196;-69
2022/03/08 08:17:33;;;;;;;2.65;2.42;;;21.10;46.90;;;;;;4994384;28;20180;-69
2022/03/08 08:19:59;;;;;;;2.47;2.38;;;21.10;47.00;;;;;;4993957;28;20215;-69
2022/03/08 08:22:25;;;;;;;2.78;2.47;;;21.20;47.00;;;;;;4977706;28;20181;-69
2022/03/08 08:24:51;;;;;;;3.28;2.45;;;21.20;47.00;;;;;;4995319;28;20263;-69
2022/03/08 08:27:17;;;;;;;3.00;2.80;;;21.10;46.90;;;;;;4978148;28;20207;-69
2022/03/08 08:29:43;;;;;;;2.92;2.70;;;21.20;47.00;;;;;;4994847;28;20253;-69
2022/03/08 08:32:09;;;;;;;2.90;2.67;;;21.20;47.00;;;;;;4994703;28;20189;-69
2022/03/08 08:34:35;;;;;;;2.75;2.55;;;21.20;46.90;;;;;;4961674;28;20213;-68
2022/03/08 08:37:00;;;;;;;2.80;2.60;;;21.20;46.90;;;;;;4961412;28;20192;-69
2022/03/08 08:39:26;;;;;;;3.17;2.90;;;21.20;46.80;;;;;;4977455;28;20189;-69
2022/03/08 08:41:52;;;;;;;2.83;2.63;;;21.20;46.90;;;;;;4977950;28;20212;-69
2022/03/08 08:44:19;;;;;;;3.17;2.88;;;21.20;47.00;;;;;;4977537;28;20211;-69
2022/03/08 08:46:46;;;;;;;2.70;2.50;;;21.10;46.70;;;;;;4977363;28;20189;-69
2022/03/08 08:49:12;;;;;;;3.13;2.80;;;21.20;47.00;;;;;;4977091;28;20185;-69
2022/03/08 08:51:38;;;;;;;2.38;2.20;;;21.20;46.90;;;;;;4993219;28;20302;-69
2022/03/08 08:54:04;;;;;;;2.50;2.30;;;21.20;46.90;;;;;;4993455;28;20686;-69
2022/03/08 08:56:35;;;;;;;2.35;2.15;;;21.20;47.00;;;;;;4961096;28;20173;-69
2022/03/08 08:59:04;;;;;;;2.40;2.13;;;21.20;47.00;;;;;;4994629;28;20184;-69
2022/03/08 09:01:31;;;;;;;2.58;2.38;;;21.20;46.90;;;;;;4957529;28;20206;-69
2022/03/08 09:03:57;;;;;;;2.92;2.47;;;21.20;47.00;;;;;;4981517;28;20288;-69
2022/03/08 09:06:23;;;;;;;2.30;2.10;;;21.20;46.90;;;;;;4993508;28;20268;-69
2022/03/08 09:08:49;;;;;;;3.08;2.42;;;21.20;47.00;;;;;;4993184;28;20189;-68
2022/03/08 09:11:14;;;;;;;3.28;2.30;;;21.20;47.00;;;;;;4992999;28;20209;-70
2022/03/08 09:13:40;;;;;;;3.08;2.80;;;21.20;47.00;;;;;;4978925;28;20234;-69
2022/03/08 09:16:07;;;;;;;3.58;2.40;;;21.20;46.90;;;;;;4994178;28;20240;-69
2022/03/08 09:18:32;;;;;;;2.58;2.35;;;21.20;47.00;;;;;;4993976;28;20195;-69
2022/03/08 09:20:58;;;;;;;2.33;2.15;;;21.20;46.90;;;;;;4992962;28;20209;-68
2022/03/08 09:23:24;;;;;;;2.85;2.55;;;21.20;46.90;;;;;;4992185;28;20199;-69
2022/03/08 09:25:50;;;;;;;2.97;2.67;;;21.20;46.90;;;;;;4958052;28;20198;-69
2022/03/08 09:28:16;;;;;;;3.08;2.40;;;21.20;47.00;;;;;;4989907;28;20211;-69
2022/03/08 09:30:43;;;;;;;2.42;2.22;;;21.20;47.00;;;;;;4960103;28;20212;-69
2022/03/08 09:33:09;;;;;;;2.33;2.10;;;21.20;46.90;;;;;;4964292;28;20217;-69
2022/03/08 09:35:35;;;;;;;3.40;2.60;;;21.30;46.90;;;;;;4973421;28;20260;-68
2022/03/08 09:38:02;;;;;;;2.65;2.45;;;21.20;46.80;;;;;;4957127;28;20186;-69
2022/03/08 09:40:28;;;;;;;2.95;2.72;;;21.20;46.90;;;;;;4957254;28;20260;-69
2022/03/08 09:42:54;;;;;;;2.70;2.50;;;21.20;46.80;;;;;;4993956;28;20297;-69
2022/03/08 09:45:20;;;;;;;3.60;2.67;;;21.20;46.80;;;;;;5013248;28;20179;-69
2022/03/08 09:47:47;;;;;;;2.22;2.03;;;21.20;46.70;;;;;;4979879;28;20188;-69
2022/03/08 09:50:14;;;;;;;2.55;2.30;;;21.20;46.90;;;;;;5013580;22;20200;-66
2022/03/08 09:52:41;;;;;;;3.10;2.80;;;21.20;46.80;;;;;;4995496;28;20191;-66
2022/03/08 09:55:13;;;;;;;3.13;2.13;;;21.20;46.70;;;;;;4995460;28;20233;-67
2022/03/08 09:57:39;;;;;;;2.65;2.17;;;21.20;46.60;;;;;;4992574;28;20188;-67
2022/03/08 10:00:08;;;;;;;5.18;2.20;;;21.20;46.70;;;;;;5027781;28;20597;-67
2022/03/08 10:02:47;;;;;;;3.45;2.42;;;21.20;46.80;;;;;;4988130;28;20195;-67
2022/03/08 10:05:15;;;;;;;3.13;2.63;;;21.20;46.70;;;;;;4979696;28;20291;-67
2022/03/08 10:08:02;;;;;;;4.25;2.42;;;21.20;46.80;;;;;;4978558;28;20192;-67
2022/03/08 10:10:32;;;;;;;4.53;2.30;;;21.20;46.80;;;;;;4995109;28;20258;-67
2022/03/08 10:12:59;;;;;;;4.50;3.00;;;21.20;46.90;;;;;;4978827;28;20204;-67
2022/03/08 10:15:25;;;;;;;4.05;2.60;;;21.20;46.80;;;;;;4978663;28;20188;-66
2022/03/08 10:17:51;;;;;;;2.80;2.55;;;21.20;46.50;;;;;;5017828;28;20181;-66
2022/03/08 10:20:30;;;;;;;3.95;2.55;;;21.20;46.80;;;;;;5014752;28;20204;-66
2022/03/08 10:22:57;;;;;;;3.28;2.22;;;21.20;47.00;;;;;;4992953;28;20176;-66
2022/03/08 10:25:28;;;;;;;4.80;2.28;;;21.20;47.00;;;;;;4979136;28;20196;-66
2022/03/08 10:27:54;;;;;;;3.20;2.13;;;21.20;47.10;;;;;;4982744;28;20199;-66
2022/03/08 10:30:40;;;;;;;3.45;2.25;;;21.20;47.00;;;;;;4997714;28;20680;-65
2022/03/08 10:33:06;;;;;;;3.10;2.20;;;21.20;47.20;;;;;;5005795;28;20204;-66
2022/03/08 10:35:37;;;;;;;3.03;2.13;;;21.20;47.40;;;;;;5011496;28;20184;-65
2022/03/08 10:38:12;;;;;;;2.22;2.10;;;21.30;47.60;;;;;;4997409;28;20218;-66
2022/03/08 10:40:39;;;;;;;5.68;2.20;;;21.20;47.60;;;;;;4994508;28;20218;-66
2022/03/08 10:43:13;;;;;;;3.47;2.20;;;21.20;47.60;;;;;;5006055;28;20317;-66
2022/03/08 10:45:49;;;;;;;2.85;2.58;;;21.20;47.80;;;;;;5001602;28;20234;-67
2022/03/08 10:48:18;;;;;;;4.20;3.03;;;21.20;47.80;;;;;;4994724;28;20176;-65
2022/03/08 10:50:49;;;;;;;5.68;3.50;;;21.20;48.20;;;;;;5012120;28;20215;-66
2022/03/08 10:53:15;;;;;;;3.10;2.80;;;21.30;48.30;;;;;;4978704;28;20211;-65
2022/03/08 10:55:49;;;;;;;3.28;2.70;;;21.20;48.40;;;;;;4981167;28;20652;-66
2022/03/08 10:58:17;;;;;;;6.97;3.17;;;21.20;48.60;;;;;;5011358;28;20679;-66
2022/03/08 11:00:46;;;;;;;4.20;2.90;;;21.30;48.70;;;;;;4994513;28;20230;-66
2022/03/08 11:03:20;;;;;;;3.17;2.85;;;21.30;48.80;;;;;;5010576;28;20196;-65
2022/03/08 11:05:53;;;;;;;2.97;2.42;;;21.30;48.60;;;;;;5011392;28;20275;-67
2022/03/08 11:08:20;;;;;;;4.20;2.65;;;21.20;48.60;;;;;;5010855;28;20184;-66
2022/03/08 11:10:47;;;;;;;4.80;2.90;;;21.20;48.60;;;;;;5010803;28;20206;-66
2022/03/08 11:13:16;;;;;;;4.55;3.40;;;21.20;48.50;;;;;;4998694;28;20243;-66
2022/03/08 11:15:43;;;;;;;5.43;3.30;;;21.20;48.30;;;;;;5012084;28;20187;-67
2022/03/08 11:18:12;;;;;;;6.35;3.10;;;21.20;48.60;;;;;;5020449;28;20180;-67
2022/03/08 11:20:40;;;;;;;6.53;3.03;;;21.20;48.50;;;;;;4992704;28;20257;-67
2022/03/08 11:23:07;;;;;;;10.52;2.95;;;21.20;48.50;;;;;;5010303;28;20251;-67
2022/03/08 11:25:46;;;;;;;4.43;2.97;;;21.30;48.50;;;;;;5005876;28;20188;-69
2022/03/08 11:28:13;;;;;;;8.07;2.50;;;21.20;48.10;;;;;;4979324;28;20202;-69
2022/03/08 11:30:47;;;;;;;4.90;2.40;;;21.30;48.50;;;;;;5011820;28;20204;-69
2022/03/08 11:33:55;;;;;;;2.45;2.25;;;21.30;48.50;;;;;;5016007;28;20667;-69
2022/03/08 11:36:41;;;;;;;5.38;2.65;;;21.30;48.50;;;;;;5004202;28;20199;-69
2022/03/08 11:39:19;;;;;;;8.00;3.38;;;21.30;48.50;;;;;;4995966;28;20234;-68
2022/03/08 11:41:56;;;;;;;3.40;3.10;;;21.30;48.50;;;;;;5010769;28;20212;-69
2022/03/08 11:44:28;;;;;;;4.07;2.58;;;21.30;48.50;;;;;;4975007;28;20185;-69
2022/03/08 11:47:00;;;;;;;6.50;2.28;;;21.30;48.50;;;;;;5008088;28;20191;-69
2022/03/08 11:49:56;;;;;;;2.83;2.10;;;21.30;48.50;;;;;;5014021;28;20216;-69
2022/03/08 11:52:30;;;;;;;3.22;2.42;;;21.30;48.40;;;;;;5004932;28;20204;-69
2022/03/08 11:55:08;;;;;;;4.38;2.97;;;21.30;48.30;;;;;;5014372;28;20175;-70
2022/03/08 11:57:49;;;;;;;5.85;4.65;;;21.30;48.50;;;;;;5015605;28;20178;-69
2022/03/08 12:00:30;;;;;;;3.55;2.78;;;21.30;48.50;;;;;;5013794;28;20200;-69
2022/03/08 12:03:00;;;;;;;6.45;3.67;;;21.20;48.10;;;;;;4997634;28;20261;-70
2022/03/08 12:05:57;;;;;;;4.30;3.20;;;21.20;48.20;;;;;;4997915;28;20184;-69
2022/03/08 12:08:29;;;;;;;4.47;2.88;;;21.20;48.30;;;;;;4997468;28;20190;-69
2022/03/08 12:11:01;;;;;;;3.28;2.38;;;21.20;48.20;;;;;;4981526;28;20207;-70
2022/03/08 12:13:29;;;;;;;3.35;2.38;;;21.20;48.20;;;;;;4997422;28;20208;-70
2022/03/08 12:16:10;;;;;;;4.15;2.70;;;21.20;48.20;;;;;;5000790;28;20179;-70
2022/03/08 12:18:41;;;;;;;3.80;2.80;;;21.20;48.20;;;;;;5000579;28;20570;-68
2022/03/08 12:21:21;;;;;;;3.22;2.92;;;21.20;48.20;;;;;;5034561;28;20199;-70
2022/03/08 12:24:07;;;;;;;5.35;3.45;;;21.30;48.30;;;;;;5017323;28;20187;-69
2022/03/08 12:26:48;;;;;;;3.03;2.72;;;21.20;48.10;;;;;;4980920;28;20196;-70
2022/03/08 12:29:21;;;;;;;2.78;2.53;;;21.20;48.20;;;;;;5008931;28;20191;-69
2022/03/08 12:32:01;;;;;;;4.55;2.83;;;21.30;48.20;;;;;;4993852;28;20212;-69
2022/03/08 12:34:35;;;;;;;3.40;2.47;;;21.20;48.10;;;;;;4981102;28;20204;-69
2022/03/08 12:37:20;;;;;;;5.20;2.75;;;21.30;48.30;;;;;;4981088;28;20238;-69
2022/03/08 12:40:09;;;;;;;3.20;2.88;;;21.30;48.20;;;;;;4986809;28;20206;-69
2022/03/08 12:42:40;;;;;;;3.47;3.17;;;21.20;48.20;;;;;;5034228;28;20167;-69
2022/03/08 12:45:13;;;;;;;5.22;2.65;;;21.20;48.10;;;;;;5000140;28;20186;-69
2022/03/08 12:48:02;;;;;;;3.97;2.40;;;21.30;48.30;;;;;;5016617;28;20262;-69
2022/03/08 12:50:39;;;;;;;3.20;2.20;;;21.20;48.10;;;;;;5025247;28;20644;-70
2022/03/08 12:53:11;;;;;;;4.65;2.35;;;21.20;48.20;;;;;;4999923;28;20749;-69